Terminal Aerodrome Forecast
Issued by NWS Portland, ME

Home | Current Version | Previous Version | Text Only | Print | Product List | Glossary On
Versions: 1 2 3 4 5 6 7 8 9 10 11 12 13 14 15
000
FTUS41 KGYX 271720
TAFPWM
TAF
KPWM 271720Z 2718/2818 19009KT P6SM SCT050
      TEMPO 2721/2723 5SM -TSRA BKN035CB
     FM280000 30004KT P6SM SCT050
     FM280600 31007KT P6SM SKC=

USA.gov is the U.S. government's official web portal to all federal, state and local government web resources and services.